Time;durP1;ratioP1;P1;durP2;ratioP2;P2;SDS_P1;SDS_P2;PMS_P1;PMS_P2;Temp;Humidity;BMP_temperature;BMP_pressure;BME280_temperature;BME280_humidity;BME280_pressure;Samples;Min_cycle;Max_cycle;Signal;HPM_P1;HPM_P2
2022/04/27 00:00:03;;;;;;;2.53;1.50;;;;;;;11.05;62.02;98851.53;5056634;28;20115;-41
2022/04/27 00:02:38;;;;;;;3.33;1.60;;;;;;;10.97;62.15;98864.94;5061641;28;20041;-41
2022/04/27 00:05:04;;;;;;;3.85;1.65;;;;;;;10.93;62.79;98862.56;5052615;28;20614;-40
2022/04/27 00:07:30;;;;;;;3.50;1.65;;;;;;;10.86;62.97;98864.59;5066420;28;20041;-40
2022/04/27 00:09:55;;;;;;;3.65;2.00;;;;;;;10.78;63.32;98873.69;5059227;28;20040;-39
2022/04/27 00:12:21;;;;;;;7.75;2.40;;;;;;;10.69;63.99;98877.56;5051079;28;20044;-39
2022/04/27 00:14:47;;;;;;;3.15;1.85;;;;;;;10.63;63.85;98891.69;5050484;28;20415;-39
2022/04/27 00:17:13;;;;;;;2.70;1.80;;;;;;;10.53;64.64;98871.41;5063211;28;20040;-39
2022/04/27 00:19:38;;;;;;;3.00;1.55;;;;;;;10.57;64.49;98883.38;5057313;28;20039;-39
2022/04/27 00:22:04;;;;;;;3.22;1.90;;;;;;;10.69;64.65;98895.75;5042427;28;20040;-40
2022/04/27 00:24:31;;;;;;;3.05;1.98;;;;;;;10.72;64.94;98897.38;5051309;28;20043;-40
2022/04/27 00:26:56;;;;;;;3.05;1.73;;;;;;;10.67;65.11;98891.56;5055369;28;20515;-40
2022/04/27 00:29:22;;;;;;;3.78;1.63;;;;;;;10.62;65.56;98899.59;5055078;28;20029;-39
2022/04/27 00:31:48;;;;;;;3.28;1.95;;;;;;;10.49;65.33;98888.06;5053737;28;20041;-41
2022/04/27 00:34:14;;;;;;;5.95;2.00;;;;;;;10.53;66.29;98900.84;5063843;28;20080;-40
2022/04/27 00:36:39;;;;;;;5.43;2.03;;;;;;;10.53;65.74;98906.03;5050410;28;20136;-41
2022/04/27 00:39:05;;;;;;;3.05;2.03;;;;;;;10.49;66.47;98925.28;5049421;28;20045;-39
2022/04/27 00:41:33;;;;;;;3.15;2.05;;;;;;;10.42;66.54;98913.47;5048544;28;20048;-40
2022/04/27 00:43:59;;;;;;;2.75;2.00;;;;;;;10.41;66.42;98916.16;5049083;28;20041;-39
2022/04/27 00:46:24;;;;;;;3.28;1.88;;;;;;;10.42;67.37;98920.44;5049889;28;20479;-39
2022/04/27 00:48:50;;;;;;;3.50;2.13;;;;;;;10.45;66.86;98925.50;5048659;28;20055;-40
2022/04/27 00:51:21;;;;;;;3.15;1.90;;;;;;;10.43;67.13;98914.31;5047037;28;20642;-40
2022/04/27 00:53:49;;;;;;;5.60;1.88;;;;;;;10.37;67.83;98920.66;5060632;28;20152;-39
2022/04/27 00:56:17;;;;;;;3.83;2.10;;;;;;;10.32;68.01;98916.56;5031921;28;20440;-40
2022/04/27 00:58:43;;;;;;;5.22;2.47;;;;;;;10.25;68.15;98922.97;5046301;28;20045;-40
2022/04/27 01:01:08;;;;;;;3.85;2.17;;;;;;;10.19;68.37;98913.69;5047428;28;20044;-40
2022/04/27 01:03:36;;;;;;;4.28;2.35;;;;;;;10.13;68.99;98917.38;5049396;28;20572;-40
2022/04/27 01:06:04;;;;;;;3.75;2.15;;;;;;;10.11;69.25;98924.38;5064508;28;20072;-39
2022/04/27 01:08:30;;;;;;;6.50;2.20;;;;;;;10.09;69.28;98923.63;5048257;28;20043;-38
2022/04/27 01:10:59;;;;;;;7.07;2.63;;;;;;;10.02;69.69;98921.34;5050739;28;20129;-40
2022/04/27 01:13:27;;;;;;;3.20;2.28;;;;;;;10.00;70.13;98924.00;5051654;28;20044;-39
2022/04/27 01:15:57;;;;;;;5.00;2.22;;;;;;;9.93;70.41;98922.63;5068304;28;20044;-39
2022/04/27 01:18:23;;;;;;;5.32;2.08;;;;;;;9.85;70.24;98922.09;5053240;28;20043;-40
2022/04/27 01:20:50;;;;;;;6.75;2.58;;;;;;;9.60;70.41;98893.78;5049890;28;20424;-40
2022/04/27 01:23:19;;;;;;;3.92;1.98;;;;;;;9.66;71.18;98916.03;5048541;28;20149;-39
2022/04/27 01:25:54;;;;;;;5.57;2.30;;;;;;;9.69;71.42;98929.69;5050409;28;20456;-41
2022/04/27 01:28:24;;;;;;;3.40;2.03;;;;;;;9.61;71.12;98930.94;5068065;28;20036;-41
2022/04/27 01:30:58;;;;;;;3.58;2.20;;;;;;;9.57;71.59;98913.81;5075096;28;20041;-40
2022/04/27 01:33:24;;;;;;;3.90;2.40;;;;;;;9.53;72.26;98912.25;5052720;28;20077;-40
2022/04/27 01:35:50;;;;;;;3.35;2.28;;;;;;;9.53;72.51;98907.91;5048303;28;20044;-40
2022/04/27 01:38:17;;;;;;;6.15;2.75;;;;;;;9.51;72.77;98917.53;5049935;28;20068;-40
2022/04/27 01:40:47;;;;;;;4.15;2.60;;;;;;;9.51;72.57;98924.47;5049047;28;20047;-40
2022/04/27 01:43:16;;;;;;;5.07;2.58;;;;;;;9.46;73.00;98927.25;5049617;28;20040;-39
2022/04/27 01:45:43;;;;;;;4.97;2.58;;;;;;;9.44;73.20;98931.66;5054682;28;20047;-40
2022/04/27 01:48:10;;;;;;;3.67;2.60;;;;;;;9.42;73.24;98933.44;5043125;28;20072;-40
2022/04/27 01:50:37;;;;;;;3.53;2.33;;;;;;;9.39;73.22;98932.75;5041292;28;20543;-41
2022/04/27 01:55:50;;;;;;;4.03;2.60;;;;;;;9.25;74.10;98925.53;5051418;28;20036;-39
2022/04/27 01:58:17;;;;;;;5.68;3.00;;;;;;;9.20;74.41;98924.91;5065682;28;20447;-39
2022/04/27 02:00:49;;;;;;;4.27;2.77;;;;;;;9.10;74.99;98923.56;5044371;28;20472;-40
2022/04/27 02:03:15;;;;;;;4.40;3.15;;;;;;;9.12;75.11;98938.16;5038308;28;20079;-40
2022/04/27 02:05:45;;;;;;;5.68;3.33;;;;;;;9.12;75.39;98934.72;5067181;28;20083;-40
2022/04/27 02:08:12;;;;;;;8.35;3.22;;;;;;;9.08;75.90;98940.94;5054312;28;20040;-40
2022/04/27 02:10:38;;;;;;;4.47;3.13;;;;;;;8.96;76.04;98921.53;5040410;28;20463;-39
2022/04/27 02:13:05;;;;;;;7.78;3.10;;;;;;;9.03;76.37;98945.47;5047554;28;20033;-39
2022/04/27 02:15:32;;;;;;;5.95;2.67;;;;;;;9.01;76.91;98945.50;5047401;28;20139;-39
2022/04/27 02:18:21;;;;;;;6.40;2.83;;;;;;;8.96;76.80;98931.03;5048897;28;20053;-48
2022/04/27 02:20:48;;;;;;;5.70;3.15;;;;;;;8.99;77.10;98944.75;5047144;28;20048;-41
2022/04/27 02:23:13;;;;;;;5.00;2.92;;;;;;;9.04;77.38;98945.41;5044485;28;20037;-40
2022/04/27 02:25:40;;;;;;;6.40;3.20;;;;;;;9.16;77.28;98955.28;5021186;28;20535;-43
2022/04/27 02:28:06;;;;;;;5.95;3.08;;;;;;;9.25;77.41;98944.53;5046250;28;20032;-39
2022/04/27 02:30:32;;;;;;;5.07;2.95;;;;;;;9.31;77.14;98948.63;5054730;28;20071;-40
2022/04/27 02:32:58;;;;;;;5.97;2.78;;;;;;;9.34;76.70;98951.09;5038221;28;20067;-40
2022/04/27 02:35:24;;;;;;;3.60;2.60;;;;;;;9.25;76.69;98931.56;5062153;28;20048;-39
2022/04/27 02:37:50;;;;;;;5.00;2.63;;;;;;;9.52;76.79;98955.53;5047540;28;20040;-41
2022/04/27 02:40:16;;;;;;;4.35;2.72;;;;;;;9.67;75.84;98959.25;5046665;28;20051;-40
2022/04/27 02:42:42;;;;;;;3.75;2.45;;;;;;;9.80;75.90;98960.38;5063748;28;20033;-40
2022/04/27 02:45:10;;;;;;;4.35;2.78;;;;;;;9.89;75.43;98957.38;5047060;28;20642;-39
2022/04/27 02:47:37;;;;;;;5.50;2.30;;;;;;;9.98;74.94;98949.22;5037123;28;20064;-39
2022/04/27 02:52:57;;;;;;;7.15;2.35;;;;;;;10.05;74.21;98962.75;5043450;28;20055;-39
2022/04/27 02:55:33;;;;;;;3.72;2.30;;;;;;;9.99;74.22;98965.66;5052168;28;20075;-39
2022/04/27 02:57:58;;;;;;;3.90;2.40;;;;;;;9.92;74.26;98966.81;5047058;28;20076;-39
2022/04/27 03:00:25;;;;;;;3.40;2.33;;;;;;;9.76;75.17;98956.25;5046525;28;20535;-39
2022/04/27 03:02:52;;;;;;;5.65;2.65;;;;;;;9.79;75.05;98975.13;5051010;28;20170;-39
2022/04/27 03:05:21;;;;;;;3.83;2.30;;;;;;;9.67;75.14;98949.69;5054395;28;20056;-39
2022/04/27 03:07:47;;;;;;;5.32;2.63;;;;;;;9.75;75.39;98967.53;5056435;28;20052;-39
2022/04/27 03:10:13;;;;;;;6.55;2.30;;;;;;;9.77;74.98;98974.34;5050862;28;20856;-40
2022/04/27 03:12:39;;;;;;;4.03;2.28;;;;;;;9.82;74.94;98976.75;5042510;28;20131;-39
2022/04/27 03:15:07;;;;;;;3.45;2.13;;;;;;;9.88;74.61;98973.06;5064555;28;20040;-40
2022/04/27 03:17:33;;;;;;;3.67;2.25;;;;;;;9.93;74.46;98974.53;5066769;28;20048;-40
2022/04/27 03:20:00;;;;;;;3.72;2.97;;;;;;;9.98;73.94;98984.72;5057134;28;20045;-41
2022/04/27 03:22:29;;;;;;;4.35;2.20;;;;;;;10.00;74.11;98981.16;5048033;28;20036;-39
2022/04/27 03:24:55;;;;;;;6.57;1.90;;;;;;;9.99;73.96;98974.28;5059859;28;20036;-40
2022/04/27 03:27:27;;;;;;;3.83;2.22;;;;;;;9.96;73.48;98977.00;5058804;28;20514;-39
2022/04/27 03:29:54;;;;;;;7.13;2.42;;;;;;;9.95;74.19;98988.28;5058350;28;20044;-40
2022/04/27 03:32:22;;;;;;;6.28;2.40;;;;;;;9.92;73.66;98985.84;5056208;28;20033;-40
2022/04/27 03:35:01;;;;;;;7.32;2.20;;;;;;;9.94;73.80;98986.63;5067463;28;20049;-40
2022/04/27 03:37:30;;;;;;;7.07;2.30;;;;;;;9.94;73.76;98994.41;5062752;28;20036;-42
2022/04/27 03:39:56;;;;;;;5.07;2.63;;;;;;;9.85;73.52;98978.38;5062563;28;20052;-40
2022/04/27 03:42:22;;;;;;;4.00;2.40;;;;;;;9.79;73.51;98982.91;5032477;28;20041;-40
2022/04/27 03:44:57;;;;;;;5.40;2.58;;;;;;;9.73;73.57;98970.19;5038455;28;20049;-38
2022/04/27 03:47:25;;;;;;;3.55;2.20;;;;;;;9.87;73.32;98992.13;5066837;28;20048;-40
2022/04/27 03:49:54;;;;;;;6.90;2.63;;;;;;;9.78;73.61;98970.00;5056304;28;20097;-39
2022/04/27 03:52:20;;;;;;;4.75;2.40;;;;;;;9.88;73.36;98973.06;5038944;28;20036;-40
2022/04/27 03:54:48;;;;;;;5.00;2.28;;;;;;;10.08;73.65;98992.06;5062870;28;20056;-40
2022/04/27 03:57:14;;;;;;;6.40;2.50;;;;;;;10.15;73.33;99005.63;5065957;28;20075;-40
2022/04/27 03:59:40;;;;;;;6.40;2.70;;;;;;;10.18;73.11;98997.72;5066041;28;20074;-39
2022/04/27 04:02:07;;;;;;;3.47;2.28;;;;;;;10.24;72.79;99004.41;5051469;28;20071;-40
2022/04/27 04:04:33;;;;;;;7.75;2.47;;;;;;;10.28;71.85;98996.41;5052592;28;20532;-41
2022/04/27 04:06:59;;;;;;;5.35;2.60;;;;;;;10.34;71.81;99001.34;5033436;28;21329;-42
2022/04/27 04:09:26;;;;;;;6.13;3.20;;;;;;;10.41;72.05;98999.31;5050479;28;20504;-41
2022/04/27 04:11:56;;;;;;;7.28;2.50;;;;;;;10.38;71.31;98992.50;5059486;28;20103;-40
2022/04/27 04:14:40;;;;;;;5.82;2.30;;;;;;;10.52;70.72;99005.69;5052346;28;20037;-41
2022/04/27 04:17:14;;;;;;;9.55;2.92;;;;;;;10.60;71.12;99003.63;5052767;28;20040;-40
2022/04/27 04:19:55;;;;;;;5.15;2.58;;;;;;;10.61;70.56;98994.91;5059932;28;20068;-40
2022/04/27 04:22:39;;;;;;;7.57;2.78;;;;;;;10.74;69.50;99002.97;5054157;28;20611;-40
2022/04/27 04:30:56;;;;;;;3.97;2.58;;;;;;;10.79;68.72;99000.16;5063892;28;20074;-40
2022/04/27 04:33:41;;;;;;;3.63;2.40;;;;;;;10.83;69.46;98996.53;5033980;28;20592;-40
2022/04/27 04:36:09;;;;;;;8.02;2.50;;;;;;;10.87;69.08;98993.72;5054182;28;20036;-41
2022/04/27 04:38:36;;;;;;;7.75;3.10;;;;;;;10.95;68.51;98998.53;5070055;28;20583;-40
2022/04/27 04:41:04;;;;;;;13.30;2.47;;;;;;;11.01;68.38;98995.66;5068222;28;20055;-40
2022/04/27 04:43:39;;;;;;;8.98;2.33;;;;;;;11.01;68.03;98978.28;5050587;28;20179;-40
2022/04/27 04:46:05;;;;;;;8.55;2.53;;;;;;;11.19;67.17;98999.16;5067498;28;20048;-40
2022/04/27 04:48:49;;;;;;;4.82;2.70;;;;;;;11.27;66.84;98999.63;5054051;28;20040;-41
2022/04/27 04:51:45;;;;;;;6.75;2.28;;;;;;;11.25;65.70;98991.88;5056871;28;20462;-39
2022/04/27 04:54:29;;;;;;;6.32;3.30;;;;;;;11.28;65.28;98999.56;5049378;28;20040;-40
2022/04/27 04:57:15;;;;;;;6.78;2.58;;;;;;;11.37;65.19;99003.47;5048339;28;20053;-41
2022/04/27 04:59:59;;;;;;;6.15;2.63;;;;;;;11.46;65.17;99003.03;5048076;28;20501;-40
2022/04/27 05:02:45;;;;;;;6.22;2.10;;;;;;;11.63;64.06;99003.03;5048171;28;20037;-40
2022/04/27 05:05:34;;;;;;;2.90;2.08;;;;;;;11.80;63.13;99000.47;5048204;28;20060;-40
2022/04/27 05:08:23;;;;;;;11.10;2.65;;;;;;;12.01;62.74;99002.91;5050959;28;20048;-41
2022/04/27 05:11:12;;;;;;;5.35;2.55;;;;;;;12.16;61.73;99002.13;5054530;28;20045;-39
2022/04/27 05:13:45;;;;;;;7.35;3.28;;;;;;;12.25;61.07;99004.25;5055156;28;20041;-42
2022/04/27 05:16:35;;;;;;;6.20;3.33;;;;;;;12.38;61.02;98994.88;5047538;28;20524;-41
2022/04/27 05:19:34;;;;;;;7.05;2.35;;;;;;;12.51;60.12;99013.34;5025684;28;20104;-41
2022/04/27 05:22:18;;;;;;;5.60;2.33;;;;;;;12.59;59.82;99017.22;5009450;28;20529;-40
2022/04/27 05:25:09;;;;;;;5.28;2.63;;;;;;;12.64;58.94;99004.75;5026045;28;20038;-41
2022/04/27 05:27:54;;;;;;;11.32;2.15;;;;;;;12.81;58.55;99000.41;4996397;28;20651;-42
2022/04/27 05:34:01;;;;;;;10.13;2.05;;;;;;;13.20;56.62;99021.72;5003442;28;20123;-42
2022/04/27 05:36:36;;;;;;;6.50;2.05;;;;;;;13.39;55.91;99022.41;5018555;28;20049;-39
2022/04/27 05:39:26;;;;;;;16.58;2.45;;;;;;;13.71;54.89;99019.72;4991793;28;20579;-41
2022/04/27 05:42:07;;;;;;;11.05;2.35;;;;;;;14.02;53.93;99024.84;5012722;28;20056;-42
2022/04/27 05:44:52;;;;;;;5.93;2.10;;;;;;;14.24;52.86;99024.41;5015172;28;20144;-40
2022/04/27 05:47:41;;;;;;;4.80;1.80;;;;;;;14.41;51.94;99011.19;5025868;28;20049;-40
2022/04/27 05:50:36;;;;;;;4.38;1.90;;;;;;;14.53;50.87;99009.59;4980608;28;20046;-41
2022/04/27 05:53:12;;;;;;;5.28;1.70;;;;;;;14.59;50.60;99011.84;5011161;28;20049;-40
2022/04/27 05:55:51;;;;;;;3.58;1.80;;;;;;;14.65;49.67;98995.78;5030700;28;20102;-41
2022/04/27 05:58:26;;;;;;;9.80;2.05;;;;;;;14.89;48.91;99020.41;5050962;28;20060;-41
2022/04/27 06:01:06;;;;;;;4.13;1.90;;;;;;;14.97;48.58;99025.19;5030691;28;20079;-42
2022/04/27 06:03:41;;;;;;;6.30;2.10;;;;;;;15.05;48.24;99015.91;5047105;28;20131;-41
2022/04/27 06:06:10;;;;;;;4.22;1.80;;;;;;;15.08;47.73;99007.00;5046941;28;20053;-41
2022/04/27 06:08:36;;;;;;;5.78;2.00;;;;;;;15.21;47.59;99019.22;5047431;28;20132;-40
2022/04/27 06:11:05;;;;;;;4.85;1.52;;;;;;;15.31;47.02;99023.88;5047041;28;20111;-40
2022/04/27 06:13:46;;;;;;;7.18;2.13;;;;;;;15.39;46.66;99027.66;5046471;28;20055;-41
2022/04/27 06:16:38;;;;;;;6.10;2.08;;;;;;;15.71;45.65;99027.38;5049997;28;20041;-40
2022/04/27 06:19:07;;;;;;;4.90;1.70;;;;;;;16.17;44.98;99033.91;5064858;28;20052;-40
2022/04/27 06:21:35;;;;;;;5.70;1.70;;;;;;;16.54;43.61;99038.28;5040630;28;20033;-41
2022/04/27 06:24:04;;;;;;;8.70;2.00;;;;;;;16.80;43.34;99040.94;5060635;28;20410;-39
2022/04/27 06:26:33;;;;;;;6.70;2.00;;;;;;;17.03;42.36;99044.56;5030254;28;20059;-41
2022/04/27 06:29:00;;;;;;;5.93;1.73;;;;;;;17.47;41.23;99044.00;5029107;28;20051;-40
2022/04/27 06:31:26;;;;;;;8.70;2.30;;;;;;;18.16;40.13;99049.31;5046925;28;20044;-41
2022/04/27 06:33:56;;;;;;;15.45;2.15;;;;;;;19.10;38.29;99050.88;5046760;28;20044;-40
2022/04/27 06:36:22;;;;;;;4.30;1.77;;;;;;;20.16;35.69;99040.34;5049482;28;20550;-40
2022/04/27 06:38:48;;;;;;;4.90;2.20;;;;;;;21.27;34.16;99051.06;5048269;28;20037;-40
2022/04/27 06:41:25;;;;;;;4.10;1.48;;;;;;;22.22;32.16;99052.97;5043448;28;20687;-40
2022/04/27 06:44:11;;;;;;;2.53;1.73;;;;;;;23.04;30.59;99053.16;5036782;28;20094;-39
2022/04/27 06:46:55;;;;;;;5.68;1.77;;;;;;;23.46;29.75;99058.00;5052119;28;20044;-41
2022/04/27 06:49:39;;;;;;;11.43;2.00;;;;;;;23.59;29.77;99043.38;5047348;28;20048;-40
2022/04/27 06:52:23;;;;;;;20.75;2.72;;;;;;;22.53;31.33;99066.00;5042989;28;20040;-39
2022/04/27 06:55:09;;;;;;;6.20;2.00;;;;;;;23.00;30.33;99057.09;5050304;28;20099;-40
2022/04/27 06:58:01;;;;;;;17.98;2.65;;;;;;;23.39;30.05;99056.91;5046383;28;20048;-41
2022/04/27 07:00:27;;;;;;;4.43;1.52;;;;;;;22.52;30.87;99059.88;5043893;28;20037;-40
2022/04/27 07:02:53;;;;;;;16.77;1.88;;;;;;;21.38;32.12;99059.72;5064527;28;20122;-41
2022/04/27 07:05:20;;;;;;;7.03;2.00;;;;;;;20.60;33.21;99055.09;5026847;28;20143;-41
2022/04/27 07:07:47;;;;;;;25.15;3.15;;;;;;;20.53;33.52;99061.03;5038202;28;20045;-40
2022/04/27 07:10:14;;;;;;;9.70;1.90;;;;;;;20.11;33.73;99049.59;5031698;28;20825;-39
2022/04/27 07:12:39;;;;;;;16.65;1.80;;;;;;;20.27;33.52;99053.47;5049984;28;20064;-39
2022/04/27 07:15:06;;;;;;;15.80;2.28;;;;;;;20.14;33.84;99059.94;5049104;28;20076;-40
2022/04/27 07:17:32;;;;;;;9.98;2.33;;;;;;;21.09;32.90;99070.19;5048992;28;20067;-40
2022/04/27 07:19:57;;;;;;;7.85;1.80;;;;;;;23.32;29.71;99058.47;5048830;28;20041;-39
2022/04/27 07:22:23;;;;;;;16.38;2.65;;;;;;;23.45;29.19;99067.75;5049561;28;20067;-41
2022/04/27 07:24:49;;;;;;;7.50;2.17;;;;;;;23.19;29.16;99075.56;5049615;28;20080;-40
2022/04/27 07:27:16;;;;;;;4.78;1.60;;;;;;;22.79;29.37;99075.88;5048062;28;20040;-41
2022/04/27 07:29:42;;;;;;;7.05;2.05;;;;;;;22.07;30.22;99075.56;5049137;28;20037;-41
2022/04/27 07:32:07;;;;;;;4.15;1.80;;;;;;;23.69;27.98;99071.69;5048387;28;20047;-39
2022/04/27 07:34:33;;;;;;;4.25;1.67;;;;;;;25.56;25.71;99074.63;5049621;28;20067;-41
2022/04/27 07:37:01;;;;;;;14.57;2.90;;;;;;;26.37;24.73;99074.72;5050046;28;20041;-42
2022/04/27 07:39:27;;;;;;;5.60;1.80;;;;;;;28.01;22.86;99064.91;5049869;28;20041;-41
2022/04/27 07:41:53;;;;;;;9.50;2.17;;;;;;;29.38;21.52;99054.69;5053498;28;20132;-41
2022/04/27 07:44:19;;;;;;;7.10;1.85;;;;;;;29.67;21.39;99074.41;5050668;28;20102;-40
2022/04/27 07:46:47;;;;;;;10.35;1.60;;;;;;;28.88;21.35;99060.81;5057689;28;20046;-39
2022/04/27 07:49:14;;;;;;;7.05;1.88;;;;;;;29.10;20.66;99069.75;5056532;28;20475;-40
2022/04/27 07:51:40;;;;;;;4.90;1.90;;;;;;;30.44;19.80;99075.38;5056586;28;20041;-41
2022/04/27 07:54:05;;;;;;;2.90;1.90;;;;;;;30.75;19.50;99072.31;5053914;28;20098;-40
2022/04/27 07:56:31;;;;;;;3.28;1.67;;;;;;;30.98;19.09;99074.72;5058702;28;20413;-40
2022/04/27 07:58:57;;;;;;;6.07;1.63;;;;;;;30.65;18.93;99069.16;5054712;28;20044;-41
2022/04/27 08:01:24;;;;;;;4.40;1.73;;;;;;;29.71;20.33;99052.38;5056057;28;20172;-41
2022/04/27 08:03:49;;;;;;;9.63;1.75;;;;;;;28.07;21.29;99066.88;5049242;28;20053;-41
2022/04/27 08:06:16;;;;;;;2.72;1.30;;;;;;;26.21;22.36;99072.88;5047737;28;20783;-39
2022/04/27 08:08:43;;;;;;;2.00;1.25;;;;;;;24.68;24.02;99071.34;5046495;28;20045;-42
2022/04/27 08:11:12;;;;;;;3.25;1.70;;;;;;;23.50;25.38;99067.34;5047358;28;20029;-41
2022/04/27 08:13:37;;;;;;;3.40;1.70;;;;;;;22.54;26.58;99067.69;5091514;28;20530;-39
2022/04/27 08:16:03;;;;;;;15.40;3.53;;;;;;;21.75;28.29;99069.66;5052128;28;20040;-40
2022/04/27 08:18:29;;;;;;;4.85;1.52;;;;;;;21.06;28.99;99062.53;5049933;28;20572;-40
2022/04/27 08:23:40;;;;;;;5.97;1.58;;;;;;;19.89;30.87;99067.22;5048659;28;20529;-40
2022/04/27 08:26:07;;;;;;;5.60;1.60;;;;;;;19.38;31.83;99066.16;5049932;28;20165;-41
2022/04/27 08:28:33;;;;;;;13.07;2.30;;;;;;;18.93;32.78;99071.50;5049693;28;20052;-42
2022/04/27 08:30:59;;;;;;;11.20;2.25;;;;;;;18.53;33.15;99076.31;5048780;28;20060;-39
2022/04/27 08:33:27;;;;;;;8.85;1.92;;;;;;;18.16;33.71;99073.00;5049737;28;20130;-40
2022/04/27 08:35:57;;;;;;;16.30;2.50;;;;;;;17.90;34.56;99081.19;5050318;28;20056;-40
2022/04/27 08:38:24;;;;;;;15.88;2.25;;;;;;;17.68;35.00;99076.66;5049095;28;20041;-40
2022/04/27 08:40:49;;;;;;;6.22;2.50;;;;;;;17.38;35.86;99084.09;5049675;28;20573;-41
2022/04/27 08:43:16;;;;;;;7.60;2.20;;;;;;;17.21;36.53;99085.31;5046451;28;20045;-41
2022/04/27 08:45:43;;;;;;;16.83;3.13;;;;;;;17.22;37.09;99090.44;5034867;28;20541;-40
2022/04/27 08:48:11;;;;;;;8.82;2.00;;;;;;;17.44;37.19;99095.00;5050139;28;20041;-39
2022/04/27 08:50:37;;;;;;;10.23;2.17;;;;;;;17.82;36.92;99100.13;5049849;28;20041;-40
2022/04/27 08:53:03;;;;;;;10.00;1.90;;;;;;;18.12;36.27;99076.81;5048061;28;20453;-40
2022/04/27 08:55:29;;;;;;;36.00;4.45;;;;;;;18.82;35.81;99097.81;5048583;28;20405;-39
2022/04/27 08:58:09;;;;;;;17.45;3.08;;;;;;;19.27;35.47;99089.88;5046554;28;20041;-41
2022/04/27 09:00:36;;;;;;;3.33;1.70;;;;;;;19.52;35.12;99094.94;5026490;28;20041;-39
2022/04/27 09:03:39;;;;;;;13.93;3.22;;;;;;;19.97;34.66;99092.97;5038529;28;20066;-41
2022/04/27 09:06:06;;;;;;;4.07;2.10;;;;;;;20.56;33.73;99089.84;5064325;28;20052;-41
2022/04/27 09:08:55;;;;;;;3.50;1.77;;;;;;;21.00;33.05;99086.84;5047861;28;20041;-40
2022/04/27 09:11:26;;;;;;;5.78;2.30;;;;;;;20.92;32.68;99083.22;5048998;28;20627;-40
2022/04/27 09:13:59;;;;;;;4.63;2.42;;;;;;;20.49;33.46;99083.38;5060704;28;20033;-39
2022/04/27 09:22:08;;;;;;;8.85;2.72;;;;;;;18.79;36.04;99087.50;5041084;28;20072;-41
2022/04/27 09:24:47;;;;;;;6.25;2.08;;;;;;;18.43;36.70;99092.94;5040832;28;20041;-41
2022/04/27 09:27:17;;;;;;;8.50;2.40;;;;;;;18.22;37.37;99095.38;5047503;28;20045;-42
2022/04/27 09:29:43;;;;;;;12.80;2.28;;;;;;;18.15;37.20;99091.56;5067856;28;20047;-41
2022/04/27 09:32:15;;;;;;;2.80;1.75;;;;;;;18.21;36.92;99080.56;5048229;28;20056;-42
2022/04/27 09:34:45;;;;;;;11.23;2.85;;;;;;;18.53;36.70;99101.81;5048601;28;20041;-41
2022/04/27 09:37:19;;;;;;;7.03;2.22;;;;;;;18.90;35.92;99105.94;5044768;28;20044;-41
2022/04/27 09:40:04;;;;;;;14.65;3.17;;;;;;;19.56;35.09;99096.34;5047360;28;20409;-42
2022/04/27 09:42:32;;;;;;;10.45;2.50;;;;;;;20.28;34.19;99099.19;5047158;28;20032;-40
2022/04/27 09:45:13;;;;;;;11.25;2.42;;;;;;;20.47;33.62;99099.34;5054062;28;20037;-41
2022/04/27 09:48:11;;;;;;;15.25;3.20;;;;;;;20.50;33.54;99101.75;5047597;28;20049;-41
2022/04/27 09:50:55;;;;;;;13.00;2.85;;;;;;;20.40;33.24;99100.84;5052957;28;20071;-40
2022/04/27 09:53:21;;;;;;;26.63;3.60;;;;;;;20.38;33.35;99105.41;5040976;28;20587;-42
2022/04/27 09:55:49;;;;;;;7.95;2.25;;;;;;;20.17;33.33;99104.53;5046721;28;20047;-42
2022/04/27 09:58:16;;;;;;;7.57;2.00;;;;;;;19.78;33.27;99101.56;5046504;28;20063;-43
2022/04/27 10:00:43;;;;;;;10.68;2.33;;;;;;;19.49;33.70;99110.97;5044708;28;20075;-40
2022/04/27 10:03:18;;;;;;;8.50;2.08;;;;;;;19.32;34.02;99114.94;5051438;28;20056;-41
2022/04/27 10:05:45;;;;;;;14.30;2.00;;;;;;;19.22;34.20;99121.03;5048036;28;20044;-42
2022/04/27 10:08:12;;;;;;;4.30;1.90;;;;;;;20.09;32.93;99104.34;5048139;28;20429;-42
2022/04/27 10:10:45;;;;;;;8.80;2.13;;;;;;;22.99;28.93;99120.88;5044148;28;20033;-40
2022/04/27 10:13:13;;;;;;;5.13;1.80;;;;;;;25.12;26.38;99104.03;5052502;28;20037;-42
2022/04/27 10:15:46;;;;;;;5.60;1.90;;;;;;;26.24;25.43;99125.88;5045742;28;20083;-41
2022/04/27 10:18:17;;;;;;;7.97;1.75;;;;;;;26.25;24.99;99129.38;5029035;28;20094;-41
2022/04/27 10:20:43;;;;;;;2.85;1.30;;;;;;;25.47;25.40;99121.66;5071600;28;20041;-41
2022/04/27 10:23:19;;;;;;;3.30;1.67;;;;;;;24.70;25.99;99119.91;5046394;28;20090;-41
2022/04/27 10:26:30;;;;;;;2.58;1.65;;;;;;;23.99;26.48;99121.75;5046145;28;20044;-44
2022/04/27 10:28:58;;;;;;;7.03;1.90;;;;;;;23.35;26.91;99117.38;5041945;28;20461;-43
2022/04/27 10:31:48;;;;;;;5.32;1.60;;;;;;;23.37;26.58;99117.22;5047934;28;20045;-43
2022/04/27 10:34:21;;;;;;;6.28;1.90;;;;;;;23.79;26.11;99115.75;5044254;28;20275;-41
2022/04/27 10:36:57;;;;;;;2.80;1.65;;;;;;;23.45;26.73;99122.63;5047356;28;20041;-42
2022/04/27 10:39:35;;;;;;;2.58;1.23;;;;;;;22.67;26.87;99122.03;5025339;28;20088;-42
2022/04/27 10:42:04;;;;;;;4.53;2.10;;;;;;;22.14;27.38;99126.16;5061462;28;20420;-42
2022/04/27 10:44:48;;;;;;;2.50;1.27;;;;;;;21.51;27.68;99125.63;5061201;28;20090;-41
2022/04/27 10:47:14;;;;;;;4.25;1.40;;;;;;;21.02;28.44;99127.22;5058743;28;20883;-42
2022/04/27 10:49:41;;;;;;;4.82;1.20;;;;;;;20.50;28.95;99124.69;5043087;28;20044;-43
2022/04/27 10:52:08;;;;;;;5.72;1.60;;;;;;;19.98;30.05;99128.97;5047259;28;20060;-48
2022/04/27 10:54:39;;;;;;;2.95;1.23;;;;;;;19.42;30.92;99134.31;5037997;28;20033;-42
2022/04/27 10:57:14;;;;;;;2.70;1.20;;;;;;;18.93;31.72;99139.97;5038022;28;20083;-42
2022/04/27 10:59:51;;;;;;;13.48;2.00;;;;;;;18.45;33.84;99157.69;5054896;28;20144;-42
2022/04/27 11:02:41;;;;;;;5.88;2.20;;;;;;;17.84;38.53;99160.53;5069246;28;20098;-42
2022/04/27 11:05:15;;;;;;;3.22;1.88;;;;;;;17.28;40.74;99171.44;5047103;28;20436;-41
2022/04/27 11:08:14;;;;;;;3.15;1.90;;;;;;;16.43;44.88;99185.13;5041107;28;20052;-40
2022/04/27 11:10:40;;;;;;;;;;;;;;;15.36;49.28;99190.28;5023292;28;20507;-42
2022/04/27 11:17:25;;;;;;;8.57;3.08;;;;;;;13.65;56.19;99192.47;4879477;29;20552;-42
2022/04/27 11:19:52;;;;;;;3.58;1.80;;;;;;;13.20;55.74;99167.91;4871338;29;20089;-42
2022/04/27 11:22:18;;;;;;;5.55;2.10;;;;;;;13.09;56.49;99175.41;4871776;29;20068;-40
2022/04/27 11:24:48;;;;;;;4.07;1.75;;;;;;;13.25;56.42;99180.69;4890046;29;20081;-40
2022/04/27 11:27:26;;;;;;;3.65;2.25;;;;;;;13.25;55.97;99162.44;4899026;29;20051;-39
2022/04/27 11:29:52;;;;;;;7.68;2.15;;;;;;;13.47;55.89;99173.41;4888786;29;20153;-38
2022/04/27 11:32:18;;;;;;;2.75;1.77;;;;;;;13.62;54.76;99184.78;4867732;29;20041;-39
2022/04/27 11:34:48;;;;;;;2.95;2.10;;;;;;;13.70;54.19;99186.06;4867326;29;20064;-38
2022/04/27 11:37:18;;;;;;;4.43;1.98;;;;;;;13.82;53.81;99190.59;4880361;29;20468;-40
2022/04/27 11:39:45;;;;;;;4.03;2.03;;;;;;;13.87;52.37;99193.00;4881735;29;20078;-41
2022/04/27 11:42:12;;;;;;;3.10;1.88;;;;;;;14.03;52.11;99192.97;4880039;29;20052;-39
2022/04/27 11:44:41;;;;;;;5.85;2.35;;;;;;;14.20;52.64;99200.69;4863510;29;20103;-39
2022/04/27 11:47:30;;;;;;;3.22;1.98;;;;;;;14.20;51.68;99198.06;4881905;29;20477;-38
2022/04/27 11:50:01;;;;;;;5.18;2.03;;;;;;;14.19;51.07;99197.22;4881497;29;20462;-39
2022/04/27 11:52:27;;;;;;;4.38;2.10;;;;;;;14.14;50.54;99199.25;4876995;29;20069;-39
2022/04/27 11:55:08;;;;;;;5.65;2.97;;;;;;;14.21;50.34;99199.75;5012068;28;20059;-39
2022/04/27 11:57:34;;;;;;;3.03;2.17;;;;;;;14.23;50.10;99192.69;5049865;28;20032;-39
2022/04/27 12:00:03;;;;;;;6.93;2.40;;;;;;;14.20;50.48;99213.75;5048397;28;20057;-40
2022/04/27 12:02:40;;;;;;;8.55;2.78;;;;;;;14.26;50.00;99205.56;5050796;28;20055;-39
2022/04/27 12:05:32;;;;;;;6.95;2.40;;;;;;;14.34;49.26;99201.56;5055089;28;20061;-40
2022/04/27 12:08:09;;;;;;;4.00;2.30;;;;;;;14.40;48.90;99216.94;5046824;28;20032;-40
2022/04/27 12:10:42;;;;;;;6.65;3.80;;;;;;;14.37;48.47;99222.38;5051623;28;20064;-40
2022/04/27 12:13:13;;;;;;;17.77;3.28;;;;;;;14.27;47.71;99197.66;5060367;28;20033;-40
2022/04/27 12:15:41;;;;;;;3.97;2.10;;;;;;;14.41;47.49;99217.78;5056622;28;20428;-40
2022/04/27 12:18:16;;;;;;;9.43;1.98;;;;;;;14.22;46.91;99194.44;5050879;28;20045;-39
2022/04/27 12:20:43;;;;;;;3.40;1.92;;;;;;;14.39;46.71;99220.50;5052513;28;20041;-39